CheckWX is a tool to help pilots better visualize weather data.  It is not intended as a substitute for an official pre-flight weather briefing.

09:12:15 UTC

EPWR METAR
Copernicus Wrocław Airport
Wrocław, Poland
Current

12 mins ago

EPWR 260900Z 13005KT 4500 BR NSC M03/M04 Q1021
Observed
Jan-26 @ 09:00 UTC
Wind
  • 130° at 5 KTS
Visibility
4,500 meters
Flight Rules
IFR
Conditions
Mist
Cloud Levels
  • Clear skies
Temperature
-3°C / 27°F
Dewpoint
-4°C / 25°F
Humidity
93%
Altimeter
30.15" Hg
Pressure
1020.92 hPa
Previous

42 mins ago

EPWR 260830Z 14005KT 3500 BR NSC M04/M05 Q1021
Observed
Jan-26 @ 08:30 UTC
Wind
  • 140° at 5 KTS
Visibility
3,500 meters
Flight Rules
IFR
Conditions
Mist
Cloud Levels
  • Clear skies
Temperature
-4°C / 25°F
Dewpoint
-5°C / 23°F
Humidity
93%
Altimeter
30.15" Hg
Pressure
1020.92 hPa
Previous

1 hour ago

EPWR 260800Z 12004KT 3500 BR NSC M05/M05 Q1021
Observed
Jan-26 @ 08:00 UTC
Wind
  • 120° at 4 KTS
Visibility
3,500 meters
Flight Rules
IFR
Conditions
Mist
Cloud Levels
  • Clear skies
Temperature
-5°C / 23°F
Dewpoint
-5°C / 23°F
Humidity
100%
Altimeter
30.15" Hg
Pressure
1020.92 hPa